createdAt,value
2017-11-14T00:00:48.475Z,25.50
2017-11-14T00:03:16.752Z,31.87
2017-11-14T00:05:45.030Z,29.20
2017-11-14T00:08:13.309Z,31.07
2017-11-14T00:10:41.591Z,26.07
2017-11-14T00:13:09.912Z,28.83
2017-11-14T00:15:39.002Z,35.27
2017-11-14T00:18:07.269Z,28.87
2017-11-14T00:20:35.534Z,28.90
2017-11-14T00:23:03.842Z,37.07
2017-11-14T00:25:32.889Z,29.33
2017-11-14T00:28:01.166Z,34.43
2017-11-14T00:30:29.457Z,40.27
2017-11-14T00:32:57.733Z,32.43
2017-11-14T00:35:26.317Z,34.93
2017-11-14T00:37:54.577Z,32.73
2017-11-14T00:40:22.849Z,33.87
2017-11-14T00:42:51.126Z,38.10
2017-11-14T00:45:19.452Z,35.37
2017-11-14T00:47:48.519Z,34.00
2017-11-14T00:50:16.794Z,30.03
2017-11-14T00:52:45.048Z,34.83
2017-11-14T00:55:13.342Z,30.20
2017-11-14T00:57:41.630Z,28.73
2017-11-14T01:00:09.974Z,38.63
2017-11-14T01:02:38.237Z,37.20
2017-11-14T01:05:07.293Z,23.87
2017-11-14T01:07:35.557Z,28.73
2017-11-14T01:10:03.857Z,25.80
2017-11-14T01:12:32.126Z,29.33
2017-11-14T01:15:00.398Z,33.43
2017-11-14T01:17:28.689Z,30.87
2017-11-14T01:19:56.964Z,38.33
2017-11-14T01:22:25.239Z,37.80
2017-11-14T01:24:53.515Z,34.83
2017-11-14T01:27:21.875Z,29.77
2017-11-14T01:29:50.233Z,32.80
2017-11-14T01:32:18.514Z,33.20
2017-11-14T01:34:46.764Z,30.03
2017-11-14T01:37:15.040Z,33.00
2017-11-14T01:39:43.317Z,24.20
2017-11-14T01:42:12.476Z,30.93
2017-11-14T01:44:40.737Z,32.60
2017-11-14T01:47:09.001Z,28.57
2017-11-14T01:49:37.270Z,28.00
2017-11-14T01:52:05.528Z,29.67
2017-11-14T01:54:33.823Z,35.13
2017-11-14T01:57:02.140Z,28.23
2017-11-14T01:59:30.602Z,30.73
2017-11-14T02:01:58.853Z,28.13
2017-11-14T02:04:27.126Z,24.87
2017-11-14T02:06:55.389Z,24.80
2017-11-14T02:09:23.725Z,30.93
2017-11-14T02:11:52.012Z,29.23
2017-11-14T02:14:20.268Z,21.03
2017-11-14T02:16:48.556Z,27.17
2017-11-14T02:19:16.831Z,31.47
2017-11-14T02:21:45.085Z,22.47
2017-11-14T02:24:13.382Z,22.73
2017-11-14T02:26:47.219Z,19.63
2017-11-14T02:29:16.264Z,22.87
2017-11-14T02:31:44.534Z,22.10
2017-11-14T02:34:12.799Z,25.07
2017-11-14T02:36:41.417Z,23.70
2017-11-14T02:39:09.669Z,18.27
2017-11-14T02:41:37.968Z,23.30
2017-11-14T02:44:06.308Z,25.80
2017-11-14T02:46:34.560Z,25.83
2017-11-14T02:49:03.616Z,21.87
2017-11-14T02:51:31.876Z,24.63
2017-11-14T02:54:00.143Z,23.83
2017-11-14T02:56:28.425Z,20.93
2017-11-14T02:58:56.776Z,24.77
2017-11-14T03:01:25.160Z,15.70
2017-11-14T03:03:53.581Z,17.27
2017-11-14T03:06:22.024Z,23.47
2017-11-14T03:08:50.306Z,21.93
2017-11-14T03:11:18.583Z,17.87
2017-11-14T03:13:46.858Z,19.40
2017-11-14T03:16:15.139Z,22.47
2017-11-14T03:18:43.754Z,19.67
2017-11-14T03:21:12.703Z,22.73
2017-11-14T03:23:40.978Z,19.90
2017-11-14T03:26:09.248Z,20.30
2017-11-14T03:28:38.280Z,18.13
2017-11-14T03:31:06.821Z,20.27
2017-11-14T03:33:35.856Z,23.27
2017-11-14T03:36:04.123Z,20.77
2017-11-14T03:38:32.411Z,23.37
2017-11-14T03:41:00.674Z,24.77
2017-11-14T03:43:28.967Z,24.50
2017-11-14T03:45:57.236Z,26.07
2017-11-14T03:48:25.498Z,28.43
2017-11-14T03:50:53.777Z,26.13
2017-11-14T03:53:22.040Z,29.90
2017-11-14T03:55:50.328Z,27.20
2017-11-14T03:58:18.602Z,28.57
2017-11-14T04:00:46.861Z,31.03
2017-11-14T04:03:15.898Z,29.87
2017-11-14T04:05:44.160Z,27.23
2017-11-14T04:08:12.438Z,27.47
2017-11-14T04:10:40.713Z,26.80
2017-11-14T04:13:09.277Z,26.77
2017-11-14T04:15:37.592Z,25.03
2017-11-14T04:18:05.856Z,30.00
2017-11-14T04:20:34.137Z,30.13
2017-11-14T04:23:02.472Z,32.10
2017-11-14T04:25:30.818Z,30.00
2017-11-14T04:27:59.081Z,27.53
2017-11-14T04:30:27.344Z,28.30
2017-11-14T04:32:55.616Z,30.07
2017-11-14T04:35:23.878Z,28.53
2017-11-14T04:37:52.522Z,25.63
2017-11-14T04:40:20.784Z,27.50
2017-11-14T04:42:49.060Z,29.60
2017-11-14T04:45:17.340Z,22.57
2017-11-14T04:47:45.617Z,28.67
2017-11-14T04:50:13.905Z,28.00
2017-11-14T04:52:42.236Z,22.57
2017-11-14T04:55:10.501Z,29.47
2017-11-14T04:57:38.817Z,24.50
2017-11-14T05:00:07.075Z,25.80
2017-11-14T05:02:35.400Z,26.63
2017-11-14T05:05:03.661Z,25.37
2017-11-14T05:07:31.954Z,24.70
2017-11-14T05:10:00.232Z,23.40
2017-11-14T05:12:28.504Z,22.67
2017-11-14T05:14:56.764Z,24.10
2017-11-14T05:17:25.048Z,22.10
2017-11-14T05:19:53.650Z,23.90
2017-11-14T05:22:21.898Z,21.93
2017-11-14T05:24:50.160Z,26.97
2017-11-14T05:27:18.536Z,22.50
2017-11-14T05:29:46.806Z,21.87
2017-11-14T05:32:15.142Z,25.50
2017-11-14T05:34:44.181Z,21.47
2017-11-14T05:37:12.441Z,22.77
2017-11-14T05:39:40.729Z,24.43
2017-11-14T05:42:09.005Z,27.50
2017-11-14T05:44:37.288Z,25.90
2017-11-14T05:47:05.565Z,26.40
2017-11-14T05:49:33.859Z,27.13
2017-11-14T05:52:02.175Z,23.97
2017-11-14T05:54:30.453Z,21.80
2017-11-14T05:56:59.554Z,24.27
2017-11-14T05:59:28.717Z,29.67
2017-11-14T06:01:56.995Z,26.00
2017-11-14T06:04:25.273Z,29.47
2017-11-14T06:06:54.319Z,32.43
2017-11-14T06:09:22.594Z,26.30
2017-11-14T06:11:50.865Z,31.10
2017-11-14T06:14:19.898Z,32.67
2017-11-14T06:16:48.697Z,29.10
2017-11-14T06:19:16.971Z,34.60
2017-11-14T06:21:45.253Z,29.80
2017-11-14T06:24:13.515Z,33.07
2017-11-14T06:26:42.954Z,30.97
2017-11-14T06:29:11.201Z,35.07
2017-11-14T06:31:39.482Z,37.47
2017-11-14T06:34:07.773Z,32.10
2017-11-14T06:36:36.059Z,35.63
2017-11-14T06:39:04.394Z,29.60
2017-11-14T06:41:32.673Z,30.27
2017-11-14T06:44:00.934Z,31.20
2017-11-14T06:46:29.212Z,31.77
2017-11-14T06:48:57.493Z,33.60
2017-11-14T06:51:25.789Z,29.37
2017-11-14T06:53:54.076Z,33.07
2017-11-14T06:56:22.345Z,28.70
2017-11-14T06:58:50.629Z,31.87
2017-11-14T07:01:18.902Z,29.80
2017-11-14T07:03:47.293Z,31.60
2017-11-14T07:06:15.548Z,29.20
2017-11-14T07:08:43.817Z,32.73
2017-11-14T07:11:12.113Z,26.67
2017-11-14T07:13:40.372Z,27.40
2017-11-14T07:16:08.664Z,31.23
2017-11-14T07:18:36.963Z,31.90
2017-11-14T07:21:05.254Z,31.93
2017-11-14T07:23:33.513Z,33.07
2017-11-14T07:26:01.785Z,24.23
2017-11-14T07:28:30.060Z,26.30
2017-11-14T07:30:58.330Z,24.73
2017-11-14T07:33:26.899Z,25.33
2017-11-14T07:35:55.160Z,21.40
2017-11-14T07:38:23.438Z,25.93
2017-11-14T07:40:51.729Z,24.90
2017-11-14T07:43:20.011Z,29.27
2017-11-14T07:45:48.285Z,25.57
2017-11-14T07:48:16.575Z,27.27
2017-11-14T07:50:44.905Z,27.67
2017-11-14T07:53:13.966Z,20.87
2017-11-14T07:55:43.737Z,28.17
2017-11-14T07:58:12.031Z,25.83
2017-11-14T08:00:40.392Z,22.80
2017-11-14T08:03:08.660Z,25.77
2017-11-14T08:05:36.941Z,23.67
2017-11-14T08:08:05.217Z,25.27
2017-11-14T08:10:33.500Z,23.80
2017-11-14T08:13:01.815Z,22.93
2017-11-14T08:15:30.077Z,23.37
2017-11-14T08:17:58.389Z,26.27
2017-11-14T08:20:26.866Z,25.23
2017-11-14T08:22:55.122Z,21.37
2017-11-14T08:25:23.395Z,25.73
2017-11-14T08:27:51.695Z,25.63
2017-11-14T08:30:19.969Z,25.67
2017-11-14T08:32:48.249Z,24.37
2017-11-14T08:35:16.534Z,18.50
2017-11-14T08:37:45.567Z,17.87
2017-11-14T08:40:15.020Z,26.63
2017-11-14T08:42:43.300Z,22.40
2017-11-14T08:45:11.661Z,17.07
2017-11-14T08:47:40.058Z,28.20
2017-11-14T08:50:08.465Z,24.40
2017-11-14T08:52:37.534Z,22.33
2017-11-14T08:55:05.797Z,26.23
2017-11-14T08:57:34.829Z,28.43
2017-11-14T09:00:03.883Z,20.87
2017-11-14T09:02:32.149Z,21.43
2017-11-14T09:05:00.436Z,23.27
2017-11-14T09:07:28.718Z,23.80
2017-11-14T09:09:56.993Z,21.87
2017-11-14T09:12:25.280Z,22.30
2017-11-14T09:14:53.981Z,23.60
2017-11-14T09:17:23.029Z,25.47
2017-11-14T09:19:51.306Z,21.10
2017-11-14T09:22:19.709Z,25.70
2017-11-14T09:24:47.972Z,21.70
2017-11-14T09:27:16.241Z,24.00
2017-11-14T09:29:44.592Z,25.47
2017-11-14T09:32:12.873Z,22.70
2017-11-14T09:34:41.173Z,26.43
2017-11-14T09:37:09.432Z,22.53
2017-11-14T09:39:37.870Z,25.10
2017-11-14T09:42:06.136Z,23.43
2017-11-14T09:44:34.400Z,21.90
2017-11-14T09:47:02.688Z,23.73
2017-11-14T09:49:30.954Z,22.73
2017-11-14T09:51:59.213Z,20.80
2017-11-14T09:54:27.495Z,22.13
2017-11-14T09:56:55.765Z,20.53
2017-11-14T09:59:25.527Z,24.17
2017-11-14T10:01:55.297Z,19.73
2017-11-14T10:04:23.573Z,21.97
2017-11-14T10:06:51.840Z,23.83
2017-11-14T10:09:20.100Z,30.97
2017-11-14T10:11:48.375Z,24.10
2017-11-14T10:14:16.640Z,25.00
2017-11-14T10:16:44.894Z,23.97
2017-11-14T10:19:13.941Z,26.57
2017-11-14T10:21:42.215Z,28.13
2017-11-14T10:24:10.497Z,25.73
2017-11-14T10:26:39.653Z,20.07
2017-11-14T10:29:08.711Z,24.50
2017-11-14T10:31:36.969Z,27.20
2017-11-14T10:34:05.312Z,22.33
2017-11-14T10:36:33.605Z,25.53
2017-11-14T10:39:02.062Z,25.00
2017-11-14T10:41:30.325Z,24.77
2017-11-14T10:43:59.356Z,21.83
2017-11-14T10:46:27.943Z,22.40
2017-11-14T10:48:56.248Z,24.53
2017-11-14T10:51:24.691Z,18.77
2017-11-14T10:53:52.973Z,21.40
2017-11-14T10:56:21.221Z,19.83
2017-11-14T10:58:50.305Z,19.87
2017-11-14T11:01:18.581Z,22.60
2017-11-14T11:03:47.687Z,19.10
2017-11-14T11:06:15.953Z,17.67
2017-11-14T11:08:44.218Z,16.97
2017-11-14T11:11:12.472Z,18.77
2017-11-14T11:13:40.751Z,17.33
2017-11-14T11:16:09.015Z,23.40
2017-11-14T11:18:37.301Z,17.07
2017-11-14T11:21:05.608Z,16.83
2017-11-14T11:23:33.896Z,15.83
2017-11-14T11:26:02.150Z,19.17
2017-11-14T11:28:30.409Z,17.13
2017-11-14T11:30:58.680Z,16.47
2017-11-14T11:33:26.932Z,12.63
2017-11-14T11:35:55.208Z,16.57
2017-11-14T11:38:23.481Z,20.53
2017-11-14T11:40:52.928Z,16.20
2017-11-14T11:43:21.202Z,14.43
2017-11-14T11:45:50.351Z,13.47
2017-11-14T11:48:19.529Z,13.73
2017-11-14T11:50:47.882Z,16.17
2017-11-14T11:53:16.150Z,16.80
2017-11-14T11:55:44.434Z,14.17
2017-11-14T11:58:12.690Z,12.60
2017-11-14T12:00:40.981Z,14.67
2017-11-14T12:03:09.233Z,12.60
2017-11-14T12:05:37.515Z,16.40
2017-11-14T12:08:05.946Z,13.90
2017-11-14T12:10:34.204Z,15.57
2017-11-14T12:13:02.781Z,16.97
2017-11-14T12:15:31.083Z,14.47
2017-11-14T12:17:59.325Z,9.97
2017-11-14T12:20:27.588Z,9.17
2017-11-14T12:22:55.857Z,8.63
2017-11-14T12:25:24.122Z,11.00
2017-11-14T12:27:53.287Z,12.13
2017-11-14T12:30:21.646Z,6.70
2017-11-14T12:32:49.905Z,8.40
2017-11-14T12:35:18.157Z,6.60
2017-11-14T12:37:46.426Z,8.77
2017-11-14T12:40:15.448Z,8.07
2017-11-14T12:42:43.754Z,8.43
2017-11-14T12:45:12.020Z,10.20
2017-11-14T12:47:40.277Z,8.33
2017-11-14T12:50:08.576Z,7.90
2017-11-14T12:52:36.855Z,12.37
2017-11-14T12:55:05.613Z,9.77
2017-11-14T12:57:33.872Z,9.77
2017-11-14T13:00:02.136Z,7.97
2017-11-14T13:02:31.226Z,10.10
2017-11-14T13:04:59.505Z,9.17
2017-11-14T13:07:27.845Z,8.63
2017-11-14T13:09:56.107Z,8.80
2017-11-14T13:12:24.375Z,9.53
2017-11-14T13:14:52.627Z,7.87
2017-11-14T13:17:20.898Z,17.67
2017-11-14T13:19:49.995Z,10.13
2017-11-14T13:22:18.274Z,11.10
2017-11-14T13:24:46.557Z,16.10
2017-11-14T13:27:15.398Z,10.60
2017-11-14T13:29:43.661Z,9.17
2017-11-14T13:32:11.917Z,11.70
2017-11-14T13:34:40.184Z,10.07
2017-11-14T13:37:08.457Z,8.90
2017-11-14T13:39:36.739Z,9.83
2017-11-14T13:42:05.107Z,9.87
2017-11-14T13:44:34.134Z,8.60
2017-11-14T13:47:02.377Z,11.50
2017-11-14T13:49:30.875Z,7.67
2017-11-14T13:51:59.130Z,10.43
2017-11-14T13:54:27.406Z,10.80
2017-11-14T13:56:55.700Z,10.80
2017-11-14T13:59:23.957Z,11.63
2017-11-14T14:01:53.110Z,13.70
2017-11-14T14:04:21.374Z,12.20
2017-11-14T14:06:49.712Z,10.07
2017-11-14T14:09:20.061Z,16.43
2017-11-14T14:11:49.180Z,10.13
2017-11-14T14:14:17.463Z,9.97
2017-11-14T14:16:45.721Z,8.13
2017-11-14T14:19:13.982Z,10.43
2017-11-14T14:21:42.299Z,13.30
2017-11-14T14:24:10.552Z,11.30
2017-11-14T14:26:38.824Z,9.00
2017-11-14T14:29:07.116Z,9.93
2017-11-14T14:31:35.398Z,10.50
2017-11-14T14:34:03.666Z,10.03
2017-11-14T14:36:31.935Z,11.83
2017-11-14T14:39:00.210Z,13.57
2017-11-14T14:41:28.473Z,9.47
2017-11-14T14:43:57.834Z,9.97
2017-11-14T14:46:26.084Z,12.13
2017-11-14T14:48:55.270Z,11.37
2017-11-14T14:51:23.541Z,8.73
2017-11-14T14:53:51.794Z,12.47
2017-11-14T14:56:20.116Z,10.47
2017-11-14T14:58:49.336Z,10.10
2017-11-14T15:01:17.611Z,8.73
2017-11-14T15:03:45.858Z,13.67
2017-11-14T15:06:14.113Z,10.50
2017-11-14T15:08:42.398Z,16.20
2017-11-14T15:11:10.678Z,12.43
2017-11-14T15:13:38.957Z,9.43
2017-11-14T15:16:07.224Z,12.43
2017-11-14T15:18:36.713Z,11.47
2017-11-14T15:21:05.039Z,8.77
2017-11-14T15:23:33.328Z,10.67
2017-11-14T15:26:01.606Z,14.63
2017-11-14T15:28:29.877Z,13.80
2017-11-14T15:30:58.786Z,16.90
2017-11-14T15:33:27.041Z,11.57
2017-11-14T15:35:55.306Z,10.43
2017-11-14T15:38:23.609Z,15.70
2017-11-14T15:40:51.895Z,15.90
2017-11-14T15:43:21.013Z,16.33
2017-11-14T15:45:49.298Z,11.90
2017-11-14T15:48:17.570Z,14.77
2017-11-14T15:50:45.858Z,13.13
2017-11-14T15:53:14.143Z,10.77
2017-11-14T15:55:42.420Z,13.20
2017-11-14T15:58:10.671Z,16.70
2017-11-14T16:00:38.962Z,13.93
2017-11-14T16:03:07.257Z,13.37
2017-11-14T16:05:35.517Z,14.30
2017-11-14T16:08:03.772Z,13.80
2017-11-14T16:10:32.814Z,14.87
2017-11-14T16:13:01.082Z,14.80
2017-11-14T16:15:29.371Z,16.53
2017-11-14T16:17:57.632Z,13.57
2017-11-14T16:20:25.885Z,12.17
2017-11-14T16:22:54.942Z,12.33
2017-11-14T16:25:23.345Z,13.30
2017-11-14T16:27:52.473Z,16.70
2017-11-14T16:30:20.769Z,12.60
2017-11-14T16:32:49.046Z,19.83
2017-11-14T16:35:17.322Z,13.20
2017-11-14T16:37:45.577Z,12.37
2017-11-14T16:40:13.854Z,21.70
2017-11-14T16:42:42.128Z,18.17
2017-11-14T16:45:10.414Z,14.37
2017-11-14T16:47:38.685Z,17.40
2017-11-14T16:50:06.946Z,16.87
2017-11-14T16:52:35.275Z,18.90
2017-11-14T16:55:03.609Z,16.83
2017-11-14T16:57:31.917Z,17.37
2017-11-14T17:00:00.288Z,15.77
2017-11-14T17:02:28.551Z,16.33
2017-11-14T17:04:56.831Z,14.43
2017-11-14T17:07:25.101Z,15.20
2017-11-14T17:09:53.512Z,18.73
2017-11-14T17:12:21.774Z,12.83
2017-11-14T17:14:50.596Z,13.70
2017-11-14T17:17:18.956Z,18.33
2017-11-14T17:19:47.228Z,19.63
2017-11-14T17:22:15.508Z,18.00
2017-11-14T17:24:44.553Z,19.43
2017-11-14T17:27:13.626Z,17.23
2017-11-14T17:29:41.883Z,14.77
2017-11-14T17:32:10.678Z,13.67
2017-11-14T17:34:38.941Z,15.00
2017-11-14T17:37:07.314Z,15.13
2017-11-14T17:39:35.590Z,13.27
2017-11-14T17:42:03.841Z,17.93
2017-11-14T17:44:32.118Z,14.93
2017-11-14T17:47:00.388Z,13.47
2017-11-14T17:49:28.669Z,14.17
2017-11-14T17:51:56.958Z,14.10
2017-11-14T17:54:25.405Z,13.70
2017-11-14T17:56:54.426Z,13.87
2017-11-14T17:59:23.850Z,17.37
2017-11-14T18:01:52.102Z,17.30
2017-11-14T18:04:20.628Z,17.00
2017-11-14T18:06:49.666Z,14.73
2017-11-14T18:09:18.699Z,13.73
2017-11-14T18:11:46.972Z,19.23
2017-11-14T18:14:15.270Z,20.57
2017-11-14T18:16:45.597Z,22.70
2017-11-14T18:19:13.874Z,17.93
2017-11-14T18:21:42.158Z,21.33
2017-11-14T18:24:10.459Z,23.13
2017-11-14T18:26:39.511Z,21.60
2017-11-14T18:29:07.805Z,29.33
2017-11-14T18:31:36.205Z,24.40
2017-11-14T18:34:05.252Z,23.90
2017-11-14T18:36:33.513Z,29.73
2017-11-14T18:39:01.798Z,26.43
2017-11-14T18:41:30.052Z,25.97
2017-11-14T18:43:58.871Z,26.30
2017-11-14T18:46:27.174Z,28.43
2017-11-14T18:48:55.438Z,25.33
2017-11-14T18:51:24.272Z,24.10
2017-11-14T18:53:52.736Z,23.83
2017-11-14T18:56:21.783Z,30.30
2017-11-14T18:58:50.122Z,31.17
2017-11-14T19:01:19.325Z,26.33
2017-11-14T19:03:48.405Z,30.03
2017-11-14T19:06:16.733Z,27.37
2017-11-14T19:08:45.108Z,32.27
2017-11-14T19:11:13.865Z,26.47
2017-11-14T19:16:16.975Z,26.17
2017-11-14T19:18:46.015Z,27.90
2017-11-14T19:21:14.263Z,25.93
2017-11-14T19:23:42.609Z,28.60
2017-11-14T19:26:11.062Z,26.87
2017-11-14T19:28:39.346Z,29.90
2017-11-14T19:31:07.612Z,29.50
2017-11-14T19:33:35.911Z,31.17
2017-11-14T19:36:04.451Z,29.57
2017-11-14T19:38:32.779Z,32.97
2017-11-14T19:41:02.569Z,27.13
2017-11-14T19:43:30.868Z,31.43
2017-11-14T19:45:59.162Z,27.70
2017-11-14T19:48:28.222Z,29.47
2017-11-14T19:50:56.532Z,28.00
2017-11-14T19:53:25.630Z,25.93
2017-11-14T19:55:54.688Z,25.87
2017-11-14T19:58:22.972Z,22.90
2017-11-14T20:00:51.245Z,23.20
2017-11-14T20:03:19.557Z,24.97
2017-11-14T20:05:48.636Z,23.77
2017-11-14T20:08:16.901Z,24.20
2017-11-14T20:10:45.170Z,24.07
2017-11-14T20:13:13.445Z,22.47
2017-11-14T20:15:41.707Z,23.50
2017-11-14T20:18:10.002Z,23.80
2017-11-14T20:20:38.273Z,21.70
2017-11-14T20:23:06.723Z,24.10
2017-11-14T20:25:34.996Z,27.60
2017-11-14T20:28:03.313Z,24.17
2017-11-14T20:30:31.711Z,23.67
2017-11-14T20:33:00.138Z,25.53
2017-11-14T20:35:28.442Z,22.50
2017-11-14T20:37:56.733Z,23.47
2017-11-14T20:40:25.011Z,21.47
2017-11-14T20:42:53.302Z,21.77
2017-11-14T20:45:21.601Z,19.83
2017-11-14T20:47:50.674Z,17.30
2017-11-14T20:50:18.970Z,21.03
2017-11-14T20:52:48.089Z,15.43
2017-11-14T20:55:16.365Z,19.17
2017-11-14T20:57:44.706Z,18.70
2017-11-14T21:00:13.994Z,18.87
2017-11-14T21:02:42.270Z,20.30
2017-11-14T21:05:10.548Z,16.80
2017-11-14T21:07:38.902Z,20.63
2017-11-14T21:10:07.165Z,19.50
2017-11-14T21:12:35.463Z,21.97
2017-11-14T21:15:03.724Z,21.40
2017-11-14T21:17:32.023Z,18.53
2017-11-14T21:20:00.289Z,19.30
2017-11-14T21:22:28.553Z,17.90
2017-11-14T21:24:56.851Z,19.97
2017-11-14T21:27:25.128Z,21.07
2017-11-14T21:29:53.816Z,18.13
2017-11-14T21:32:22.088Z,23.17
2017-11-14T21:34:50.353Z,21.27
2017-11-14T21:37:18.642Z,20.57
2017-11-14T21:39:46.924Z,22.73
2017-11-14T21:42:15.203Z,22.07
2017-11-14T21:44:43.470Z,23.77
2017-11-14T21:47:11.788Z,21.87
2017-11-14T21:49:40.902Z,20.43
2017-11-14T21:52:09.953Z,21.57
2017-11-14T21:54:38.242Z,22.10
2017-11-14T21:57:06.503Z,25.57
2017-11-14T21:59:34.777Z,22.37
2017-11-14T22:02:03.067Z,21.80
2017-11-14T22:04:31.354Z,24.53
2017-11-14T22:06:59.692Z,20.27
2017-11-14T22:09:27.952Z,26.50
2017-11-14T22:11:56.235Z,21.40
2017-11-14T22:14:24.513Z,21.47
2017-11-14T22:16:52.865Z,21.07
2017-11-14T22:19:21.367Z,22.40
2017-11-14T22:21:49.630Z,24.17
2017-11-14T22:24:18.046Z,24.27
2017-11-14T22:26:46.355Z,24.07
2017-11-14T22:29:14.625Z,24.10
2017-11-14T22:31:42.894Z,24.00
2017-11-14T22:34:12.703Z,25.20
2017-11-14T22:36:40.997Z,26.40
2017-11-14T22:39:09.274Z,26.67
2017-11-14T22:41:38.365Z,27.70
2017-11-14T22:44:06.828Z,29.80
2017-11-14T22:46:35.079Z,27.73
2017-11-14T22:49:03.362Z,26.43
2017-11-14T22:51:31.632Z,27.40
2017-11-14T22:53:59.923Z,27.67
2017-11-14T22:56:28.188Z,26.07
2017-11-14T22:58:56.515Z,26.70
2017-11-14T23:01:25.577Z,23.77
2017-11-14T23:03:53.861Z,24.53
2017-11-14T23:06:22.170Z,23.53
2017-11-14T23:08:51.206Z,23.90
2017-11-14T23:11:19.555Z,24.23
2017-11-14T23:13:48.704Z,20.90
2017-11-14T23:16:17.020Z,22.97
2017-11-14T23:18:46.104Z,22.30
2017-11-14T23:21:15.164Z,23.50
2017-11-14T23:23:43.449Z,23.33
2017-11-14T23:26:11.822Z,22.93
2017-11-14T23:28:40.546Z,20.70
2017-11-14T23:31:09.121Z,22.93
2017-11-14T23:33:37.377Z,24.50
2017-11-14T23:36:05.673Z,26.33
2017-11-14T23:38:34.049Z,22.90
2017-11-14T23:41:02.427Z,24.87
2017-11-14T23:43:31.006Z,22.47
2017-11-14T23:45:59.277Z,25.40
2017-11-14T23:48:27.561Z,25.20
2017-11-14T23:50:55.841Z,22.43
2017-11-14T23:53:24.202Z,20.80
2017-11-14T23:55:52.630Z,19.90
2017-11-14T23:58:21.665Z,23.87
